Time;durP1;ratioP1;P1;durP2;ratioP2;P2;SDS_P1;SDS_P2;PMS_P1;PMS_P2;Temp;Humidity;BMP_temperature;BMP_pressure;BME280_temperature;BME280_humidity;BME280_pressure;Samples;Min_cycle;Max_cycle;Signal;HPM_P1;HPM_P2
2022/01/30 00:01:35;;;;;;;10.88;5.63;;;;;;;;;;5030796;28;20029;-37
2022/01/30 00:04:01;;;;;;;11.75;5.25;;;;;;;;;;5030574;28;20047;-37
2022/01/30 00:06:26;;;;;;;11.05;4.68;;;;;;;;;;5031114;28;20060;-37
2022/01/30 00:08:51;;;;;;;14.80;5.43;;;;;;;;;;5030670;28;20030;-37
2022/01/30 00:11:21;;;;;;;18.45;5.68;;;;;;;;;;5031272;28;20026;-37
2022/01/30 00:13:47;;;;;;;7.63;4.22;;;;;;;;;;5032513;28;20046;-37
2022/01/30 00:16:15;;;;;;;14.07;4.78;;;;;;;;;;5034370;28;20028;-37
2022/01/30 00:21:12;;;;;;;12.40;5.43;;;;;;;;;;5034636;28;20010;-37
2022/01/30 00:23:46;;;;;;;15.18;5.32;;;;;;;;;;5034289;28;20120;-37
2022/01/30 00:26:14;;;;;;;9.25;4.32;;;;;;;;;;5034492;28;20037;-37
2022/01/30 00:28:40;;;;;;;7.90;3.80;;;;;;;;;;5034019;28;20029;-37
2022/01/30 00:31:06;;;;;;;12.10;6.65;;;;;;;;;;5034094;28;20036;-37
2022/01/30 00:33:31;;;;;;;12.27;4.65;;;;;;;;;;5033925;28;20025;-37
2022/01/30 00:35:57;;;;;;;11.68;5.22;;;;;;;;;;5034024;28;20360;-37
2022/01/30 00:38:23;;;;;;;13.60;5.65;;;;;;;;;;5034275;28;20036;-37
2022/01/30 00:40:50;;;;;;;9.25;3.80;;;;;;;;;;5033771;28;20407;-37
2022/01/30 00:43:16;;;;;;;13.20;5.53;;;;;;;;;;5032603;28;20065;-37
2022/01/30 00:45:43;;;;;;;10.27;4.82;;;;;;;;;;5032366;28;20057;-37
2022/01/30 00:48:08;;;;;;;10.82;4.93;;;;;;;;;;5032518;28;20033;-37
2022/01/30 00:50:34;;;;;;;9.82;4.32;;;;;;;;;;5032611;28;20032;-37
2022/01/30 00:52:59;;;;;;;9.35;4.18;;;;;;;;;;5032328;28;20025;-37
2022/01/30 00:55:26;;;;;;;11.57;5.38;;;;;;;;;;5032367;28;20025;-37
2022/01/30 00:57:52;;;;;;;11.40;4.55;;;;;;;;;;5032196;28;20026;-37
2022/01/30 01:00:18;;;;;;;9.68;4.40;;;;;;;;;;5033534;28;20030;-37
2022/01/30 01:02:44;;;;;;;14.35;4.30;;;;;;;;;;5032078;28;20422;-37
2022/01/30 01:05:10;;;;;;;10.05;4.13;;;;;;;;;;5032136;28;20064;-37
2022/01/30 01:07:41;;;;;;;8.65;4.35;;;;;;;;;;5033229;28;20057;-37
2022/01/30 01:10:12;;;;;;;13.68;5.15;;;;;;;;;;5032131;28;20033;-37
2022/01/30 01:23:42;;;;;;;9.32;4.18;;;;;;;;;;5039402;28;20463;-37
2022/01/30 01:26:08;;;;;;;8.07;5.00;;;;;;;;;;5032447;28;20379;-37
2022/01/30 01:28:35;;;;;;;14.60;4.57;;;;;;;;;;5032789;28;20025;-37
2022/01/30 01:31:02;;;;;;;14.32;4.93;;;;;;;;;;5032053;28;20036;-37
2022/01/30 01:33:36;;;;;;;6.47;3.95;;;;;;;;;;5032846;28;20412;-37
2022/01/30 01:36:02;;;;;;;14.18;6.38;;;;;;;;;;5033071;28;20392;-37
2022/01/30 01:38:27;;;;;;;16.33;4.57;;;;;;;;;;5031530;28;20030;-37
2022/01/30 01:40:54;;;;;;;10.30;4.82;;;;;;;;;;5032768;28;20055;-37
2022/01/30 01:43:20;;;;;;;8.80;3.28;;;;;;;;;;5031333;28;20191;-37
2022/01/30 01:45:48;;;;;;;11.18;4.85;;;;;;;;;;5032604;28;20502;-37
2022/01/30 01:48:14;;;;;;;7.40;3.78;;;;;;;;;;5031418;28;20045;-37
2022/01/30 01:50:44;;;;;;;12.32;4.10;;;;;;;;;;5031170;28;20044;-37
2022/01/30 01:53:13;;;;;;;11.70;4.05;;;;;;;;;;5031252;28;20026;-37
2022/01/30 01:55:40;;;;;;;13.63;5.03;;;;;;;;;;5032609;28;20045;-37
2022/01/30 01:58:12;;;;;;;6.20;3.83;;;;;;;;;;5031160;28;20021;-37
2022/01/30 02:01:01;;;;;;;9.10;4.18;;;;;;;;;;5031112;28;20531;-37
2022/01/30 02:03:27;;;;;;;10.15;4.57;;;;;;;;;;5030947;28;20041;-37
2022/01/30 02:05:56;;;;;;;8.82;4.38;;;;;;;;;;5032209;28;20018;-37
2022/01/30 02:08:41;;;;;;;15.30;5.40;;;;;;;;;;5032253;28;20037;-37
2022/01/30 02:26:58;;;;;;;10.02;4.82;;;;;;;;;;5032231;28;20025;-37
2022/01/30 02:29:24;;;;;;;11.25;4.32;;;;;;;;;;5032200;28;20035;-37
2022/01/30 02:31:50;;;;;;;10.70;4.05;;;;;;;;;;5031778;28;20456;-37
2022/01/30 02:34:15;;;;;;;15.80;4.70;;;;;;;;;;5030528;28;20372;-37
2022/01/30 02:36:50;;;;;;;9.82;5.30;;;;;;;;;;5029516;28;20468;-37
2022/01/30 02:39:16;;;;;;;14.10;4.75;;;;;;;;;;5030461;28;20030;-37
2022/01/30 02:41:42;;;;;;;13.43;5.10;;;;;;;;;;5030180;28;20491;-37
2022/01/30 02:46:55;;;;;;;12.93;4.30;;;;;;;;;;5030296;28;20116;-37
2022/01/30 02:51:50;;;;;;;9.38;4.75;;;;;;;;;;5031977;28;20349;-37
2022/01/30 02:54:16;;;;;;;10.73;5.15;;;;;;;;;;5030110;28;20052;-37
2022/01/30 02:56:42;;;;;;;12.23;4.93;;;;;;;;;;5030192;28;20042;-37
2022/01/30 02:59:08;;;;;;;13.40;5.13;;;;;;;;;;5030140;28;20017;-37
2022/01/30 03:01:33;;;;;;;10.88;5.30;;;;;;;;;;5030062;28;20040;-37
2022/01/30 03:03:59;;;;;;;26.70;5.93;;;;;;;;;;5031512;28;20037;-37
2022/01/30 03:06:25;;;;;;;14.63;5.50;;;;;;;;;;5031364;28;20500;-37
2022/01/30 03:08:50;;;;;;;14.80;5.75;;;;;;;;;;5031244;28;20036;-37
2022/01/30 03:11:16;;;;;;;9.55;4.07;;;;;;;;;;5030062;28;20032;-37
2022/01/30 03:13:41;;;;;;;16.60;6.80;;;;;;;;;;5031469;28;20030;-37
2022/01/30 03:16:07;;;;;;;11.43;5.03;;;;;;;;;;5029929;28;20033;-37
2022/01/30 03:18:32;;;;;;;16.10;5.85;;;;;;;;;;5031216;28;20409;-37
2022/01/30 03:20:58;;;;;;;9.40;4.70;;;;;;;;;;5029954;28;20044;-37
2022/01/30 03:23:24;;;;;;;16.13;6.07;;;;;;;;;;5031097;28;20025;-37
2022/01/30 03:25:54;;;;;;;12.98;5.13;;;;;;;;;;5029828;28;20120;-37
2022/01/30 03:28:26;;;;;;;12.23;5.15;;;;;;;;;;5029963;28;20022;-37
2022/01/30 03:31:04;;;;;;;15.05;5.38;;;;;;;;;;5030156;28;20087;-37
2022/01/30 03:33:36;;;;;;;14.73;5.07;;;;;;;;;;5029736;28;20033;-37
2022/01/30 03:36:02;;;;;;;11.25;5.15;;;;;;;;;;5029783;28;20040;-37
2022/01/30 03:38:27;;;;;;;16.27;6.07;;;;;;;;;;5029794;28;20029;-37
2022/01/30 03:40:53;;;;;;;13.68;5.15;;;;;;;;;;5029606;28;20073;-37
2022/01/30 03:43:19;;;;;;;14.32;5.93;;;;;;;;;;5029883;28;20072;-37
2022/01/30 03:45:45;;;;;;;17.23;5.82;;;;;;;;;;5029680;28;20033;-37
2022/01/30 03:48:12;;;;;;;10.43;4.60;;;;;;;;;;5030831;28;20026;-37
2022/01/30 03:50:56;;;;;;;13.43;5.38;;;;;;;;;;5034797;28;20044;-37
2022/01/30 03:53:22;;;;;;;11.27;5.93;;;;;;;;;;5034798;28;20038;-37
2022/01/30 03:55:47;;;;;;;18.02;6.10;;;;;;;;;;5033407;28;20014;-37
2022/01/30 03:58:22;;;;;;;18.75;7.10;;;;;;;;;;5033480;28;20144;-37
2022/01/30 04:00:48;;;;;;;10.02;4.10;;;;;;;;;;5033389;28;20033;-37
2022/01/30 04:03:14;;;;;;;13.10;5.10;;;;;;;;;;5033249;28;20402;-37
2022/01/30 04:05:39;;;;;;;12.65;4.88;;;;;;;;;;5034476;28;20388;-37
2022/01/30 04:08:05;;;;;;;4.43;3.30;;;;;;;;;;5033319;28;20464;-37
2022/01/30 04:10:40;;;;;;;10.35;4.25;;;;;;;;;;5033451;28;20037;-37
2022/01/30 04:13:37;;;;;;;18.25;5.93;;;;;;;;;;5043939;28;20037;-37
2022/01/30 04:16:09;;;;;;;16.50;6.72;;;;;;;;;;5034431;28;20041;-37
2022/01/30 04:18:53;;;;;;;9.68;4.93;;;;;;;;;;5034584;28;20103;-37
2022/01/30 04:21:29;;;;;;;8.80;4.40;;;;;;;;;;5034278;28;20479;-37
2022/01/30 04:24:29;;;;;;;10.00;4.68;;;;;;;;;;5051679;28;20124;-37
2022/01/30 04:27:07;;;;;;;8.65;4.65;;;;;;;;;;5035247;28;20062;-37
2022/01/30 04:29:51;;;;;;;15.85;4.70;;;;;;;;;;5034469;28;20045;-37
2022/01/30 04:32:29;;;;;;;9.57;4.40;;;;;;;;;;5032867;28;20034;-37
2022/01/30 04:35:26;;;;;;;17.42;5.38;;;;;;;;;;5040641;28;20025;-37
2022/01/30 04:53:18;;;;;;;7.72;4.35;;;;;;;;;;5033493;28;20057;-37
2022/01/30 04:59:43;;;;;;;12.05;5.07;;;;;;;;;;5032958;28;20049;-37
2022/01/30 05:05:42;;;;;;;10.23;4.57;;;;;;;;;;5042268;28;20052;-37
2022/01/30 05:08:09;;;;;;;8.88;5.63;;;;;;;;;;5032185;28;20025;-37
2022/01/30 05:11:06;;;;;;;10.88;4.28;;;;;;;;;;5032672;28;20033;-37
2022/01/30 05:13:58;;;;;;;8.23;4.30;;;;;;;;;;5031985;28;20025;-37
2022/01/30 05:16:56;;;;;;;11.77;5.03;;;;;;;;;;5031900;28;20037;-37
2022/01/30 05:19:45;;;;;;;11.85;5.20;;;;;;;;;;5032708;28;20037;-37
2022/01/30 05:22:26;;;;;;;10.23;5.35;;;;;;;;;;5031929;28;20029;-37
2022/01/30 05:25:21;;;;;;;14.60;5.75;;;;;;;;;;5032529;28;20491;-37
2022/01/30 05:27:56;;;;;;;20.65;5.00;;;;;;;;;;5032053;28;20041;-37
2022/01/30 05:30:57;;;;;;;14.40;4.15;;;;;;;;;;5030536;28;20037;-37
2022/01/30 05:33:36;;;;;;;17.10;5.60;;;;;;;;;;5029346;28;20047;-37
2022/01/30 05:36:20;;;;;;;9.00;4.72;;;;;;;;;;5032999;28;20037;-37
2022/01/30 05:38:55;;;;;;;11.27;3.92;;;;;;;;;;5033050;28;20044;-37
2022/01/30 05:41:57;;;;;;;19.08;4.97;;;;;;;;;;5050152;28;20052;-37
2022/01/30 05:47:48;;;;;;;11.45;4.43;;;;;;;;;;5031409;28;20033;-37
2022/01/30 05:50:33;;;;;;;7.93;4.22;;;;;;;;;;5032774;28;20439;-37
2022/01/30 05:53:02;;;;;;;10.82;5.80;;;;;;;;;;5031204;28;20029;-37
2022/01/30 05:55:36;;;;;;;12.68;4.93;;;;;;;;;;5031219;28;20033;-37
2022/01/30 05:58:03;;;;;;;12.38;4.75;;;;;;;;;;5032428;28;20030;-37
2022/01/30 06:00:46;;;;;;;10.90;5.20;;;;;;;;;;5031135;28;20056;-37
2022/01/30 06:03:11;;;;;;;8.95;4.45;;;;;;;;;;5030944;28;20073;-37
2022/01/30 06:05:38;;;;;;;9.82;5.03;;;;;;;;;;5031009;28;20025;-37
2022/01/30 06:08:13;;;;;;;7.05;4.88;;;;;;;;;;5032618;28;20454;-37
2022/01/30 06:10:39;;;;;;;14.77;5.80;;;;;;;;;;5030743;28;20112;-37
2022/01/30 06:13:05;;;;;;;17.23;5.47;;;;;;;;;;5030814;28;20114;-37
2022/01/30 06:15:32;;;;;;;11.10;4.95;;;;;;;;;;5030901;28;20083;-37
2022/01/30 06:18:05;;;;;;;13.13;4.00;;;;;;;;;;5030946;28;20119;-37
2022/01/30 06:20:49;;;;;;;12.02;5.53;;;;;;;;;;5032022;28;20039;-37
2022/01/30 06:23:33;;;;;;;18.75;4.93;;;;;;;;;;5031924;28;20102;-37
2022/01/30 06:26:17;;;;;;;15.45;5.10;;;;;;;;;;5032251;28;20442;-37
2022/01/30 06:29:01;;;;;;;20.95;5.68;;;;;;;;;;5032034;28;20507;-37
2022/01/30 06:31:45;;;;;;;15.48;4.93;;;;;;;;;;5032111;28;20506;-37
2022/01/30 06:34:29;;;;;;;13.90;5.82;;;;;;;;;;5031825;28;20534;-37
2022/01/30 06:37:23;;;;;;;14.60;5.07;;;;;;;;;;5031717;28;20026;-37
2022/01/30 06:40:21;;;;;;;8.23;4.30;;;;;;;;;;5030584;28;20454;-37
2022/01/30 06:43:05;;;;;;;8.65;4.82;;;;;;;;;;5031836;28;20091;-37
2022/01/30 06:45:49;;;;;;;11.05;5.85;;;;;;;;;;5031636;28;20055;-37
2022/01/30 06:48:53;;;;;;;9.45;4.25;;;;;;;;;;5029170;28;20034;-37
2022/01/30 06:51:36;;;;;;;19.77;6.68;;;;;;;;;;5029236;28;20148;-37
2022/01/30 06:54:20;;;;;;;17.15;7.20;;;;;;;;;;5024579;28;20084;-37
2022/01/30 06:57:05;;;;;;;17.85;7.90;;;;;;;;;;5031473;28;20056;-37
2022/01/30 06:59:49;;;;;;;12.25;5.50;;;;;;;;;;5031721;28;20163;-37
2022/01/30 07:02:46;;;;;;;14.07;4.53;;;;;;;;;;5041038;28;20034;-36
2022/01/30 07:05:35;;;;;;;11.35;4.38;;;;;;;;;;5039631;28;20081;-37
2022/01/30 07:08:08;;;;;;;7.00;3.90;;;;;;;;;;5030144;28;20033;-36
2022/01/30 07:10:33;;;;;;;8.80;4.63;;;;;;;;;;5031357;28;20041;-36
2022/01/30 07:12:59;;;;;;;16.92;6.75;;;;;;;;;;5031512;28;20028;-37
2022/01/30 07:15:25;;;;;;;15.40;5.60;;;;;;;;;;5031603;28;20037;-37
2022/01/30 07:17:51;;;;;;;14.10;4.90;;;;;;;;;;5029964;28;20028;-36
2022/01/30 07:20:17;;;;;;;7.47;4.05;;;;;;;;;;5031257;28;20431;-36
2022/01/30 07:22:43;;;;;;;13.73;5.53;;;;;;;;;;5031823;28;20467;-36
2022/01/30 07:25:09;;;;;;;11.80;4.80;;;;;;;;;;5035110;28;20049;-37
2022/01/30 07:27:35;;;;;;;8.65;4.93;;;;;;;;;;5035351;28;20035;-37
2022/01/30 07:30:00;;;;;;;14.15;5.40;;;;;;;;;;5035208;28;20518;-37
2022/01/30 07:32:26;;;;;;;9.90;4.65;;;;;;;;;;5035159;28;20029;-37
2022/01/30 07:34:54;;;;;;;12.20;4.85;;;;;;;;;;5035363;28;20435;-37
2022/01/30 07:37:20;;;;;;;11.23;3.65;;;;;;;;;;5035180;28;20052;-37
2022/01/30 07:39:46;;;;;;;13.10;5.20;;;;;;;;;;5034971;28;20026;-37
2022/01/30 07:42:12;;;;;;;10.75;5.80;;;;;;;;;;5035008;28;20052;-37
2022/01/30 07:44:38;;;;;;;10.23;5.15;;;;;;;;;;5033480;28;20442;-37
2022/01/30 07:47:05;;;;;;;13.30;3.65;;;;;;;;;;5033606;28;20033;-37
2022/01/30 07:49:31;;;;;;;10.18;5.60;;;;;;;;;;5034979;28;20037;-37
2022/01/30 07:51:57;;;;;;;7.28;2.95;;;;;;;;;;5034773;28;20584;-37
2022/01/30 07:54:22;;;;;;;6.43;4.35;;;;;;;;;;5035018;28;20511;-37
2022/01/30 07:56:48;;;;;;;14.93;5.03;;;;;;;;;;5034992;28;20025;-37
2022/01/30 07:59:14;;;;;;;11.00;4.40;;;;;;;;;;5034717;28;20029;-37
2022/01/30 08:01:39;;;;;;;8.02;4.03;;;;;;;;;;5034903;28;20025;-37
2022/01/30 08:04:08;;;;;;;11.80;5.93;;;;;;;;;;5034499;28;20492;-37
2022/01/30 08:06:34;;;;;;;11.93;4.28;;;;;;;;;;5034626;28;20132;-37
2022/01/30 08:09:00;;;;;;;12.48;4.47;;;;;;;;;;5034785;28;20033;-37
2022/01/30 08:11:25;;;;;;;8.27;2.65;;;;;;;;;;5034569;28;20032;-37
2022/01/30 08:13:51;;;;;;;10.30;4.13;;;;;;;;;;5034603;28;20038;-37
2022/01/30 08:16:18;;;;;;;6.05;3.25;;;;;;;;;;5034758;28;20025;-37
2022/01/30 08:18:44;;;;;;;13.32;4.32;;;;;;;;;;5034560;28;20117;-37
2022/01/30 08:21:09;;;;;;;15.07;4.47;;;;;;;;;;5034428;28;20104;-37
2022/01/30 08:23:35;;;;;;;5.88;3.83;;;;;;;;;;5034486;28;20048;-37
2022/01/30 08:26:01;;;;;;;13.52;5.10;;;;;;;;;;5034489;28;20451;-37
2022/01/30 08:28:27;;;;;;;5.05;3.25;;;;;;;;;;5034146;28;20040;-37
2022/01/30 08:30:52;;;;;;;3.67;2.63;;;;;;;;;;5034079;28;20033;-37
2022/01/30 08:33:18;;;;;;;15.43;4.88;;;;;;;;;;5034158;28;20041;-37
2022/01/30 08:35:44;;;;;;;10.68;4.63;;;;;;;;;;5033821;28;20032;-37
2022/01/30 08:38:10;;;;;;;14.82;3.83;;;;;;;;;;5034392;28;20030;-37
2022/01/30 08:40:36;;;;;;;4.85;3.00;;;;;;;;;;5033871;28;20052;-37
2022/01/30 08:43:02;;;;;;;11.35;4.00;;;;;;;;;;5033609;28;20122;-37
2022/01/30 08:45:27;;;;;;;8.02;4.07;;;;;;;;;;5033935;28;20049;-37
2022/01/30 08:47:53;;;;;;;6.85;3.63;;;;;;;;;;5033738;28;20030;-37
2022/01/30 08:50:20;;;;;;;6.60;2.85;;;;;;;;;;5033970;28;20032;-37
2022/01/30 08:52:46;;;;;;;8.82;4.35;;;;;;;;;;5033693;28;20051;-37
2022/01/30 08:55:12;;;;;;;9.00;4.03;;;;;;;;;;5033699;28;20543;-37
2022/01/30 08:57:38;;;;;;;9.38;3.80;;;;;;;;;;5033785;28;20096;-37
2022/01/30 09:00:05;;;;;;;10.43;3.97;;;;;;;;;;5033631;28;20464;-37
2022/01/30 09:02:30;;;;;;;7.82;3.70;;;;;;;;;;5033607;28;20022;-37
2022/01/30 09:04:56;;;;;;;8.10;3.17;;;;;;;;;;5033563;28;20365;-37
2022/01/30 09:07:21;;;;;;;7.40;3.35;;;;;;;;;;5032239;28;20033;-37
2022/01/30 09:09:47;;;;;;;8.43;3.13;;;;;;;;;;5033390;28;20033;-37
2022/01/30 09:12:13;;;;;;;13.88;4.18;;;;;;;;;;5033397;28;20032;-37
2022/01/30 09:14:42;;;;;;;6.10;3.42;;;;;;;;;;5033280;28;20026;-37
2022/01/30 09:17:15;;;;;;;10.75;4.63;;;;;;;;;;5033324;28;20034;-37
2022/01/30 09:19:42;;;;;;;6.55;3.35;;;;;;;;;;5033404;28;20029;-37
2022/01/30 09:22:08;;;;;;;8.68;3.55;;;;;;;;;;5033230;28;20026;-37
2022/01/30 09:24:34;;;;;;;7.15;4.00;;;;;;;;;;5032982;28;20116;-37
2022/01/30 09:26:59;;;;;;;11.02;3.17;;;;;;;;;;5033557;28;20125;-37
2022/01/30 09:29:26;;;;;;;8.70;3.17;;;;;;;;;;5033349;28;20434;-37
2022/01/30 09:31:52;;;;;;;4.70;1.85;;;;;;;;;;5033173;28;20025;-37
2022/01/30 09:34:17;;;;;;;6.68;2.97;;;;;;;;;;5032893;28;20095;-37
2022/01/30 09:36:43;;;;;;;10.68;5.57;;;;;;;;;;5032900;28;20032;-37
2022/01/30 09:39:08;;;;;;;4.30;2.72;;;;;;;;;;5032814;28;20452;-37
2022/01/30 09:41:35;;;;;;;9.65;2.60;;;;;;;;;;5032632;28;20060;-37
2022/01/30 09:44:01;;;;;;;8.95;2.70;;;;;;;;;;5032611;28;20102;-37
2022/01/30 09:46:31;;;;;;;6.63;2.78;;;;;;;;;;5032572;28;20101;-37
2022/01/30 09:48:58;;;;;;;6.43;3.22;;;;;;;;;;5032590;28;20211;-37
2022/01/30 09:51:25;;;;;;;11.93;3.40;;;;;;;;;;5032942;28;20486;-37
2022/01/30 09:53:51;;;;;;;9.05;2.88;;;;;;;;;;5032366;28;20036;-37
2022/01/30 09:56:18;;;;;;;4.47;2.70;;;;;;;;;;5032583;28;20231;-37
2022/01/30 09:58:45;;;;;;;7.85;4.57;;;;;;;;;;5032797;28;20394;-37
2022/01/30 10:01:10;;;;;;;10.27;3.33;;;;;;;;;;5032692;28;20087;-37
2022/01/30 10:03:39;;;;;;;8.13;3.03;;;;;;;;;;5032371;28;20037;-37
2022/01/30 10:06:05;;;;;;;7.15;3.40;;;;;;;;;;5032401;28;20017;-37
2022/01/30 10:08:30;;;;;;;7.60;3.05;;;;;;;;;;5032259;28;20116;-37
2022/01/30 10:11:15;;;;;;;17.75;3.92;;;;;;;;;;5032528;28;20022;-37
2022/01/30 10:13:42;;;;;;;10.88;3.03;;;;;;;;;;5032188;28;20044;-37
2022/01/30 10:16:11;;;;;;;5.97;2.75;;;;;;;;;;5032359;28;20030;-37
2022/01/30 10:18:43;;;;;;;7.03;2.50;;;;;;;;;;5032483;28;20471;-37
2022/01/30 10:21:18;;;;;;;6.00;3.13;;;;;;;;;;5032452;28;20109;-37
2022/01/30 10:23:44;;;;;;;4.95;2.42;;;;;;;;;;5032056;28;20422;-37
2022/01/30 10:26:12;;;;;;;8.18;1.95;;;;;;;;;;5032029;28;20020;-37
2022/01/30 10:28:40;;;;;;;10.63;3.30;;;;;;;;;;5031841;28;20171;-37
2022/01/30 10:31:06;;;;;;;5.15;2.22;;;;;;;;;;5031996;28;20104;-37
2022/01/30 10:33:38;;;;;;;5.70;2.25;;;;;;;;;;5031787;28;20550;-37
2022/01/30 10:36:04;;;;;;;5.95;1.42;;;;;;;;;;5030378;28;20447;-37
2022/01/30 10:38:33;;;;;;;3.63;2.00;;;;;;;;;;5032045;28;20025;-37
2022/01/30 10:41:18;;;;;;;5.13;2.03;;;;;;;;;;5031448;28;20060;-37
2022/01/30 10:43:57;;;;;;;2.95;2.38;;;;;;;;;;5031532;28;20029;-37
2022/01/30 10:46:23;;;;;;;4.10;2.50;;;;;;;;;;5031795;28;20029;-37
2022/01/30 10:48:57;;;;;;;7.43;2.60;;;;;;;;;;5031589;28;20360;-37
2022/01/30 10:51:23;;;;;;;6.55;2.67;;;;;;;;;;5032187;28;20036;-37
2022/01/30 10:53:51;;;;;;;6.07;2.63;;;;;;;;;;5031288;28;20025;-37
2022/01/30 10:56:21;;;;;;;7.45;2.60;;;;;;;;;;5031578;28;20229;-37
2022/01/30 10:59:05;;;;;;;8.45;2.72;;;;;;;;;;5030604;28;20528;-37
2022/01/30 11:01:31;;;;;;;8.93;2.33;;;;;;;;;;5031680;28;20037;-37
2022/01/30 11:04:00;;;;;;;11.05;4.25;;;;;;;;;;5031225;28;20120;-37
2022/01/30 11:06:28;;;;;;;10.23;2.83;;;;;;;;;;5031371;28;20041;-37
2022/01/30 11:08:54;;;;;;;9.70;4.28;;;;;;;;;;5031299;28;20075;-37
2022/01/30 11:19:19;;;;;;;4.30;2.58;;;;;;;;;;5031468;28;20044;-37
2022/01/30 11:21:49;;;;;;;9.63;3.47;;;;;;;;;;5029865;28;20087;-37
2022/01/30 11:24:16;;;;;;;6.63;2.83;;;;;;;;;;5031114;28;20396;-37
2022/01/30 11:26:45;;;;;;;9.32;3.33;;;;;;;;;;5031049;28;20025;-37
2022/01/30 11:29:12;;;;;;;4.22;2.78;;;;;;;;;;5031197;28;20034;-37
2022/01/30 11:31:38;;;;;;;7.22;2.50;;;;;;;;;;5029905;28;20147;-37
2022/01/30 11:34:04;;;;;;;4.85;2.15;;;;;;;;;;5031142;28;20045;-37
2022/01/30 11:36:34;;;;;;;3.75;1.80;;;;;;;;;;5031098;28;20380;-37
2022/01/30 11:39:00;;;;;;;6.20;2.75;;;;;;;;;;5031276;28;20081;-37
2022/01/30 11:41:30;;;;;;;4.40;2.33;;;;;;;;;;5031278;28;20050;-37
2022/01/30 11:44:14;;;;;;;7.57;2.60;;;;;;;;;;5031109;28;20048;-37
2022/01/30 11:46:40;;;;;;;3.58;1.88;;;;;;;;;;5030836;28;20037;-37
2022/01/30 11:49:11;;;;;;;8.10;2.92;;;;;;;;;;5030946;28;20470;-37
2022/01/30 11:51:57;;;;;;;8.88;2.55;;;;;;;;;;5031156;28;20034;-37
2022/01/30 11:54:34;;;;;;;4.60;2.20;;;;;;;;;;5030704;28;20040;-37
2022/01/30 11:57:04;;;;;;;4.22;2.05;;;;;;;;;;5030833;28;20033;-37
2022/01/30 11:59:37;;;;;;;1.65;1.55;;;;;;;;;;5030952;28;20021;-37
2022/01/30 12:02:21;;;;;;;5.32;2.65;;;;;;;;;;5030741;28;20183;-37
2022/01/30 12:05:06;;;;;;;7.57;2.80;;;;;;;;;;5031076;28;20088;-37
2022/01/30 12:07:38;;;;;;;5.18;2.60;;;;;;;;;;5030902;28;20033;-37
2022/01/30 12:10:16;;;;;;;4.50;2.33;;;;;;;;;;5033083;28;20034;-37
2022/01/30 12:12:51;;;;;;;6.43;2.10;;;;;;;;;;5034641;28;20037;-37
2022/01/30 12:15:35;;;;;;;3.25;2.58;;;;;;;;;;5034460;28;20045;-37
2022/01/30 12:18:01;;;;;;;6.63;3.13;;;;;;;;;;5034626;28;20079;-37
2022/01/30 12:20:29;;;;;;;6.10;2.92;;;;;;;;;;5034711;28;20025;-37
2022/01/30 12:22:55;;;;;;;8.10;2.47;;;;;;;;;;5034250;28;20025;-37
2022/01/30 12:25:25;;;;;;;4.63;2.80;;;;;;;;;;5034356;28;20034;-37
2022/01/30 12:27:54;;;;;;;6.00;3.13;;;;;;;;;;5034161;28;20034;-37
2022/01/30 12:30:30;;;;;;;7.22;3.10;;;;;;;;;;5034453;28;20072;-37
2022/01/30 12:32:56;;;;;;;6.65;2.15;;;;;;;;;;5034031;28;20448;-37
2022/01/30 12:35:21;;;;;;;3.70;2.20;;;;;;;;;;5034166;28;20060;-37
2022/01/30 12:37:47;;;;;;;9.15;2.92;;;;;;;;;;5033906;28;20035;-37
2022/01/30 12:40:18;;;;;;;5.78;2.85;;;;;;;;;;5034019;28;20021;-37
2022/01/30 12:42:47;;;;;;;8.07;3.67;;;;;;;;;;5033718;28;20381;-37
2022/01/30 12:45:13;;;;;;;7.32;3.40;;;;;;;;;;5033796;28;20165;-37
2022/01/30 12:47:46;;;;;;;7.35;3.13;;;;;;;;;;5034247;28;20091;-37
2022/01/30 12:50:12;;;;;;;5.03;2.72;;;;;;;;;;5033827;28;20033;-37
2022/01/30 12:52:39;;;;;;;5.57;3.08;;;;;;;;;;5034003;28;20491;-37
2022/01/30 12:55:11;;;;;;;7.75;3.25;;;;;;;;;;5033612;28;20040;-37
2022/01/30 12:57:37;;;;;;;5.67;3.60;;;;;;;;;;5032473;28;20033;-37
2022/01/30 13:00:07;;;;;;;3.05;2.60;;;;;;;;;;5032258;28;20028;-37
2022/01/30 13:02:38;;;;;;;4.60;2.55;;;;;;;;;;5033571;28;20473;-37
2022/01/30 13:05:09;;;;;;;5.13;2.78;;;;;;;;;;5033432;28;20041;-37
2022/01/30 13:07:36;;;;;;;5.68;3.13;;;;;;;;;;5033795;28;20430;-37
2022/01/30 13:10:03;;;;;;;10.55;3.47;;;;;;;;;;5033406;28;20029;-37
2022/01/30 13:12:31;;;;;;;5.90;3.03;;;;;;;;;;5033359;28;20498;-37
2022/01/30 13:15:04;;;;;;;7.35;2.90;;;;;;;;;;5032020;28;20524;-37
2022/01/30 13:17:30;;;;;;;7.65;2.63;;;;;;;;;;5033341;28;20100;-37
2022/01/30 13:19:56;;;;;;;4.93;2.97;;;;;;;;;;5033283;28;20178;-37
2022/01/30 13:22:28;;;;;;;5.18;2.50;;;;;;;;;;5032448;28;20033;-37
2022/01/30 13:24:55;;;;;;;10.70;3.00;;;;;;;;;;5033034;28;20045;-38
2022/01/30 13:27:20;;;;;;;6.65;3.00;;;;;;;;;;5033474;28;20028;-37
2022/01/30 13:29:46;;;;;;;8.60;3.85;;;;;;;;;;5033084;28;20388;-37
2022/01/30 13:32:12;;;;;;;7.97;3.22;;;;;;;;;;5031749;28;20024;-37
2022/01/30 13:34:39;;;;;;;7.22;2.85;;;;;;;;;;5032979;28;20040;-37
2022/01/30 13:37:05;;;;;;;8.18;2.67;;;;;;;;;;5033152;28;20029;-37
2022/01/30 13:40:04;;;;;;;9.95;3.92;;;;;;;;;;5032869;28;20502;-37
2022/01/30 13:48:05;;;;;;;6.65;2.72;;;;;;;;;;5032622;28;20034;-37
2022/01/30 13:50:34;;;;;;;6.05;2.92;;;;;;;;;;5032691;28;20060;-37
2022/01/30 13:53:04;;;;;;;9.45;2.88;;;;;;;;;;5032644;28;20100;-37
2022/01/30 13:55:30;;;;;;;13.80;2.65;;;;;;;;;;5032618;28;20029;-37
2022/01/30 13:57:57;;;;;;;6.13;3.35;;;;;;;;;;5032484;28;20056;-37
2022/01/30 14:00:23;;;;;;;4.15;2.53;;;;;;;;;;5032806;28;20500;-37
2022/01/30 14:03:01;;;;;;;5.70;3.50;;;;;;;;;;5032288;28;20029;-37
2022/01/30 14:05:29;;;;;;;6.32;2.78;;;;;;;;;;5032383;28;20068;-37
2022/01/30 14:07:56;;;;;;;6.82;2.95;;;;;;;;;;5032342;28;20032;-37
2022/01/30 14:10:23;;;;;;;5.43;2.63;;;;;;;;;;5032463;28;20056;-37
2022/01/30 14:12:50;;;;;;;6.47;3.60;;;;;;;;;;5032214;28;20017;-37
2022/01/30 14:15:18;;;;;;;6.90;3.00;;;;;;;;;;5032274;28;20116;-37
2022/01/30 14:17:44;;;;;;;6.85;4.25;;;;;;;;;;5032321;28;20028;-37
2022/01/30 14:20:12;;;;;;;6.28;2.67;;;;;;;;;;5032494;28;20380;-37
2022/01/30 14:22:38;;;;;;;12.60;3.50;;;;;;;;;;5032045;28;20622;-38
2022/01/30 14:25:06;;;;;;;9.35;3.42;;;;;;;;;;5031906;28;20129;-37
2022/01/30 14:27:39;;;;;;;8.25;3.53;;;;;;;;;;5030851;28;20104;-37
2022/01/30 14:30:10;;;;;;;7.78;2.58;;;;;;;;;;5031937;28;20037;-37
2022/01/30 14:32:36;;;;;;;11.88;4.65;;;;;;;;;;5031723;28;20545;-37
2022/01/30 14:35:06;;;;;;;4.07;2.60;;;;;;;;;;5031736;28;20025;-37
2022/01/30 14:37:32;;;;;;;4.28;3.53;;;;;;;;;;5032139;28;20383;-37
2022/01/30 14:39:59;;;;;;;7.55;3.13;;;;;;;;;;5031691;28;20018;-37
2022/01/30 14:42:25;;;;;;;7.38;3.67;;;;;;;;;;5031636;28;20085;-37
2022/01/30 14:44:50;;;;;;;5.20;3.72;;;;;;;;;;5031589;28;20514;-37
2022/01/30 14:47:16;;;;;;;9.10;2.97;;;;;;;;;;5030466;28;20026;-37
2022/01/30 14:49:43;;;;;;;9.48;4.13;;;;;;;;;;5031672;28;20032;-37
2022/01/30 14:52:08;;;;;;;8.93;3.92;;;;;;;;;;5031406;28;20030;-37
2022/01/30 14:54:35;;;;;;;7.10;3.58;;;;;;;;;;5031602;28;20026;-37
2022/01/30 14:57:01;;;;;;;6.53;3.25;;;;;;;;;;5031511;28;20026;-37
2022/01/30 14:59:27;;;;;;;12.27;3.67;;;;;;;;;;5031497;28;20099;-37
2022/01/30 15:01:53;;;;;;;8.43;4.13;;;;;;;;;;5031631;28;20065;-37
2022/01/30 15:04:18;;;;;;;7.88;3.58;;;;;;;;;;5031363;28;20463;-37
2022/01/30 15:06:44;;;;;;;4.60;3.08;;;;;;;;;;5031676;28;20037;-37
2022/01/30 15:09:11;;;;;;;7.30;3.10;;;;;;;;;;5031378;28;20026;-37
2022/01/30 15:11:40;;;;;;;7.65;4.07;;;;;;;;;;5031400;28;20028;-37
2022/01/30 15:14:06;;;;;;;6.63;3.35;;;;;;;;;;5031187;28;20029;-37
2022/01/30 15:19:08;;;;;;;5.15;3.13;;;;;;;;;;5031491;28;20052;-37
2022/01/30 15:21:33;;;;;;;7.75;2.88;;;;;;;;;;5029926;28;20036;-37
2022/01/30 15:23:59;;;;;;;5.60;3.20;;;;;;;;;;5031066;28;20037;-37
2022/01/30 15:26:25;;;;;;;6.57;3.72;;;;;;;;;;5031260;28;20074;-37
2022/01/30 15:28:51;;;;;;;5.28;2.53;;;;;;;;;;5031322;28;20083;-37
2022/01/30 15:31:20;;;;;;;15.02;4.22;;;;;;;;;;5031268;28;20025;-37
2022/01/30 15:33:46;;;;;;;10.82;3.70;;;;;;;;;;5030982;28;20395;-37
2022/01/30 15:36:11;;;;;;;7.70;4.07;;;;;;;;;;5030107;28;20033;-37
2022/01/30 15:38:37;;;;;;;11.95;5.03;;;;;;;;;;5031744;28;20036;-37
2022/01/30 15:41:03;;;;;;;6.90;3.53;;;;;;;;;;5029684;28;20127;-37
2022/01/30 15:43:29;;;;;;;6.10;3.63;;;;;;;;;;5030929;28;20049;-37
2022/01/30 15:51:22;;;;;;;8.38;4.75;;;;;;;;;;5035235;28;20025;-37
2022/01/30 15:53:48;;;;;;;9.45;4.03;;;;;;;;;;5034680;28;20475;-37
2022/01/30 15:56:14;;;;;;;12.30;4.35;;;;;;;;;;5035113;28;20033;-37
2022/01/30 15:58:40;;;;;;;8.40;3.25;;;;;;;;;;5034846;28;20427;-37
2022/01/30 16:01:09;;;;;;;13.90;4.55;;;;;;;;;;5034746;28;20166;-37
2022/01/30 16:03:34;;;;;;;9.95;5.53;;;;;;;;;;5034564;28;20025;-37
2022/01/30 16:06:03;;;;;;;8.82;4.32;;;;;;;;;;5034799;28;20048;-37
2022/01/30 16:08:38;;;;;;;5.53;3.47;;;;;;;;;;5034667;28;20029;-37
2022/01/30 16:11:33;;;;;;;8.13;4.47;;;;;;;;;;5034878;28;20033;-37
2022/01/30 16:16:56;;;;;;;6.05;3.58;;;;;;;;;;5044066;28;20494;-37
2022/01/30 16:19:22;;;;;;;7.15;3.20;;;;;;;;;;5034634;28;20361;-37
2022/01/30 16:21:47;;;;;;;8.75;4.22;;;;;;;;;;5034356;28;20086;-37